createdAt,value
2019-04-10T00:01:36.057Z,98887.42
2019-04-10T00:04:03.766Z,98886.45
2019-04-10T00:06:31.985Z,98882.58
2019-04-10T00:09:00.873Z,98881.77
2019-04-10T00:11:29.191Z,98883.09
2019-04-10T00:13:56.944Z,98881.70
2019-04-10T00:16:24.728Z,98882.52
2019-04-10T00:18:52.461Z,98884.52
2019-04-10T00:21:20.982Z,98878.75
2019-04-10T00:23:49.227Z,98888.16
2019-04-10T00:26:17.403Z,98885.27
2019-04-10T00:28:45.612Z,98883.52
2019-04-10T00:31:13.781Z,98887.31
2019-04-10T00:33:41.669Z,98886.86
2019-04-10T00:36:12.147Z,98884.93
2019-04-10T00:38:40.093Z,98880.73
2019-04-10T00:41:08.061Z,98884.46
2019-04-10T00:43:35.803Z,98883.36
2019-04-10T00:46:04.062Z,98881.85
2019-04-10T00:48:32.203Z,98845.06
2019-04-10T00:51:01.207Z,98881.75
2019-04-10T00:53:29.516Z,98873.20
2019-04-10T00:55:57.415Z,98874.08
2019-04-10T00:58:25.920Z,98872.16
2019-04-10T01:00:54.826Z,98871.46
2019-04-10T01:03:42.501Z,98871.91
2019-04-10T01:06:11.490Z,98868.88
2019-04-10T01:08:40.531Z,98870.19
2019-04-10T01:11:13.634Z,98870.89
2019-04-10T01:13:41.353Z,98871.07
2019-04-10T01:16:09.250Z,98865.69
2019-04-10T01:18:37.387Z,98865.26
2019-04-10T01:21:06.183Z,98863.45
2019-04-10T01:23:35.045Z,98864.14
2019-04-10T01:26:03.084Z,98872.31
2019-04-10T01:28:31.093Z,98868.33
2019-04-10T01:30:59.199Z,98867.34
2019-04-10T01:33:26.921Z,98869.54
2019-04-10T01:35:54.814Z,98866.41
2019-04-10T01:38:22.570Z,98864.59
2019-04-10T01:40:51.165Z,98865.91
2019-04-10T01:43:20.010Z,98867.02
2019-04-10T01:45:48.017Z,98865.63
2019-04-10T01:48:15.720Z,98860.00
2019-04-10T01:50:44.438Z,98864.53
2019-04-10T01:53:13.365Z,98863.55
2019-04-10T01:55:42.936Z,98855.34
2019-04-10T01:58:17.132Z,98856.56
2019-04-10T02:00:50.752Z,98857.87
2019-04-10T02:03:18.500Z,98855.65
2019-04-10T02:05:47.107Z,98855.91
2019-04-10T02:08:17.194Z,98857.92
2019-04-10T02:10:44.713Z,98854.58
2019-04-10T02:13:12.446Z,98856.44
2019-04-10T02:15:40.243Z,98858.25
2019-04-10T02:18:08.873Z,98853.88
2019-04-10T02:20:47.350Z,98853.91
2019-04-10T02:23:16.240Z,98857.01
2019-04-10T02:25:45.087Z,98847.73
2019-04-10T02:28:33.335Z,98846.81
2019-04-10T02:31:02.856Z,98823.66
2019-04-10T02:33:31.459Z,98841.67
2019-04-10T02:35:59.355Z,98836.67
2019-04-10T02:38:47.796Z,98840.50
2019-04-10T02:40:57.529Z,98841.11
2019-04-10T02:43:27.219Z,98836.69
2019-04-10T02:45:55.722Z,98844.02
2019-04-10T02:48:23.694Z,98841.22
2019-04-10T02:50:51.437Z,98842.16
2019-04-10T02:53:19.655Z,98842.06
2019-04-10T02:55:49.350Z,98841.43
2019-04-10T02:58:18.705Z,98844.45
2019-04-10T03:00:48.815Z,98846.57
2019-04-10T03:03:18.004Z,98841.59
2019-04-10T03:05:46.646Z,98842.96
2019-04-10T03:08:15.827Z,98840.56
2019-04-10T03:10:50.588Z,98846.03
2019-04-10T03:13:14.336Z,98838.99
2019-04-10T03:15:43.399Z,98832.33
2019-04-10T03:18:12.607Z,98837.09
2019-04-10T03:20:40.842Z,98838.12
2019-04-10T03:23:09.360Z,98833.59
2019-04-10T03:25:39.238Z,98834.14
2019-04-10T03:28:07.193Z,98829.91
2019-04-10T03:30:36.928Z,98831.24
2019-04-10T03:33:30.439Z,98834.41
2019-04-10T03:35:57.033Z,98837.89
2019-04-10T03:38:25.788Z,98842.89
2019-04-10T03:40:54.096Z,98847.01
2019-04-10T03:43:22.727Z,98838.30
2019-04-10T03:45:50.820Z,98842.54
2019-04-10T03:48:18.568Z,98846.06
2019-04-10T03:50:52.186Z,98840.70
2019-04-10T03:53:22.148Z,98840.44
2019-04-10T03:55:51.110Z,98848.56
2019-04-10T03:58:19.763Z,98846.91
2019-04-10T04:00:58.551Z,98847.73
2019-04-10T04:03:26.806Z,98849.17
2019-04-10T04:05:55.137Z,98855.80
2019-04-10T04:08:23.563Z,98859.66
2019-04-10T04:10:51.658Z,98862.00
2019-04-10T04:13:19.591Z,98862.06
2019-04-10T04:15:48.372Z,98861.11
2019-04-10T04:18:17.195Z,98863.77
2019-04-10T04:20:45.390Z,98860.41
2019-04-10T04:23:13.776Z,98861.73
2019-04-10T04:25:42.781Z,98860.45
2019-04-10T04:28:11.317Z,98861.81
2019-04-10T04:30:40.424Z,98863.12
2019-04-10T04:33:08.862Z,98864.63
2019-04-10T04:35:37.019Z,98869.30
2019-04-10T04:38:05.304Z,98873.16
2019-04-10T04:40:33.995Z,98871.47
2019-04-10T04:43:01.763Z,98869.33
2019-04-10T04:45:29.991Z,98877.20
2019-04-10T04:47:59.798Z,98880.13
2019-04-10T04:50:27.893Z,98884.84
2019-04-10T04:52:55.653Z,98886.83
2019-04-10T04:55:23.475Z,98867.31
2019-04-10T04:57:51.411Z,98888.28
2019-04-10T05:00:19.398Z,98896.91
2019-04-10T05:02:47.158Z,98900.39
2019-04-10T05:05:17.202Z,98899.38
2019-04-10T05:07:54.762Z,98909.27
2019-04-10T05:10:15.514Z,98911.70
2019-04-10T05:12:43.692Z,98912.41
2019-04-10T05:15:11.620Z,98915.08
2019-04-10T05:17:59.702Z,98916.94
2019-04-10T05:20:39.474Z,98922.62
2019-04-10T05:22:57.680Z,98920.91
2019-04-10T05:25:25.468Z,98927.34
2019-04-10T05:27:53.264Z,98935.33
2019-04-10T05:30:21.240Z,98933.48
2019-04-10T05:32:49.359Z,98938.39
2019-04-10T05:35:17.293Z,98940.22
2019-04-10T05:37:48.527Z,98936.73
2019-04-10T05:40:17.465Z,98939.34
2019-04-10T05:42:45.258Z,98944.59
2019-04-10T05:45:13.024Z,98948.86
2019-04-10T05:47:40.839Z,98949.87
2019-04-10T05:50:28.102Z,98953.83
2019-04-10T05:52:56.133Z,98958.80
2019-04-10T05:55:24.609Z,98955.23
2019-04-10T05:57:53.166Z,98959.20
2019-04-10T06:00:22.982Z,98958.36
2019-04-10T06:02:50.800Z,98962.95
2019-04-10T06:05:18.602Z,98970.27
2019-04-10T06:07:47.337Z,98968.37
2019-04-10T06:10:15.529Z,98968.80
2019-04-10T06:12:44.679Z,98969.94
2019-04-10T06:15:12.913Z,98973.08
2019-04-10T06:17:40.768Z,98973.41
2019-04-10T06:20:09.251Z,98971.97
2019-04-10T06:22:37.091Z,98971.97
2019-04-10T06:25:08.618Z,98977.84
2019-04-10T06:27:36.739Z,98970.55
2019-04-10T06:30:07.773Z,98973.82
2019-04-10T06:32:35.737Z,98972.41
2019-04-10T06:35:04.213Z,98973.13
2019-04-10T06:37:32.551Z,98967.48
2019-04-10T06:40:10.689Z,98970.32
2019-04-10T06:42:31.483Z,98965.34
2019-04-10T06:45:00.649Z,98963.40
2019-04-10T06:47:28.673Z,98964.60
2019-04-10T06:49:56.951Z,98962.14
2019-04-10T06:52:25.077Z,98970.16
2019-04-10T06:54:54.107Z,98970.72
2019-04-10T06:57:22.951Z,98971.77
2019-04-10T06:59:50.790Z,98970.05
2019-04-10T07:02:25.541Z,98975.50
2019-04-10T07:04:53.108Z,98979.69
2019-04-10T07:07:20.285Z,98985.53
2019-04-10T07:09:49.509Z,98979.24
2019-04-10T07:12:18.498Z,98996.94
2019-04-10T07:14:49.326Z,98993.39
2019-04-10T07:17:16.149Z,98989.76
2019-04-10T07:19:45.694Z,98975.97
2019-04-10T07:22:14.715Z,98954.92
2019-04-10T07:24:44.072Z,98963.75
2019-04-10T07:27:12.030Z,98971.38
2019-04-10T07:29:40.422Z,98969.17
2019-04-10T07:32:10.628Z,98973.76
2019-04-10T07:34:38.339Z,98976.05
2019-04-10T07:37:06.139Z,98975.73
2019-04-10T07:39:35.051Z,98982.48
2019-04-10T07:42:04.070Z,98982.66
2019-04-10T07:44:31.891Z,98988.50
2019-04-10T07:47:00.809Z,98990.81
2019-04-10T07:49:31.175Z,98981.44
2019-04-10T07:51:58.679Z,98985.88
2019-04-10T07:54:26.785Z,98985.98
2019-04-10T07:56:55.687Z,98985.80
2019-04-10T07:59:23.533Z,98976.44
2019-04-10T08:01:51.754Z,98983.00
2019-04-10T08:04:20.532Z,98985.63
2019-04-10T08:06:48.589Z,98982.41
2019-04-10T08:09:16.730Z,98974.25
2019-04-10T08:11:44.877Z,98983.00
2019-04-10T08:14:13.147Z,98979.19
2019-04-10T08:16:41.441Z,98984.18
2019-04-10T08:19:10.388Z,98982.60
2019-04-10T08:21:49.136Z,98983.92
2019-04-10T08:24:18.158Z,98980.78
2019-04-10T08:26:47.137Z,98991.48
2019-04-10T08:29:16.202Z,98987.50
2019-04-10T08:31:44.314Z,98992.58
2019-04-10T08:34:12.203Z,98988.53
2019-04-10T08:36:40.023Z,98988.05
2019-04-10T08:39:07.995Z,98992.94
2019-04-10T08:41:35.799Z,98989.83
2019-04-10T08:44:04.422Z,98996.57
2019-04-10T08:46:33.559Z,98992.77
2019-04-10T08:49:01.575Z,98993.64
2019-04-10T08:51:29.315Z,98999.48
2019-04-10T08:53:57.107Z,99007.04
2019-04-10T08:56:24.940Z,98997.36
2019-04-10T08:58:52.790Z,98994.66
2019-04-10T09:01:20.915Z,98998.48
2019-04-10T09:03:48.967Z,98989.85
2019-04-10T09:06:17.536Z,98967.28
2019-04-10T09:08:45.449Z,98971.64
2019-04-10T09:11:13.233Z,98976.45
2019-04-10T09:14:01.060Z,98969.39
2019-04-10T09:16:28.892Z,98980.17
2019-04-10T09:18:57.679Z,98977.71
2019-04-10T09:21:26.558Z,98988.67
2019-04-10T09:23:57.667Z,98971.64
2019-04-10T09:26:26.517Z,98977.30
2019-04-10T09:28:54.910Z,98981.04
2019-04-10T09:31:27.753Z,98960.61
2019-04-10T09:33:55.799Z,98985.35
2019-04-10T09:36:23.576Z,98969.27
2019-04-10T09:38:51.384Z,98965.53
2019-04-10T09:41:19.511Z,98961.03
2019-04-10T09:43:47.683Z,98966.03
2019-04-10T09:46:16.173Z,98952.84
2019-04-10T09:48:44.335Z,98960.80
2019-04-10T09:51:13.106Z,98956.42
2019-04-10T09:53:41.940Z,98953.33
2019-04-10T09:56:09.716Z,98956.08
2019-04-10T09:58:37.460Z,98952.34
2019-04-10T10:01:09.020Z,98942.17
2019-04-10T10:03:36.825Z,98941.63
2019-04-10T10:06:04.579Z,98927.84
2019-04-10T10:08:32.374Z,98928.28
2019-04-10T10:11:00.096Z,98930.58
2019-04-10T10:13:27.906Z,98923.19
2019-04-10T10:15:56.680Z,98930.19
2019-04-10T10:18:25.610Z,98919.63
2019-04-10T10:20:54.291Z,98916.31
2019-04-10T10:23:22.118Z,98917.09
2019-04-10T10:25:49.943Z,98915.91
2019-04-10T10:28:18.759Z,98916.27
2019-04-10T10:30:47.380Z,98909.81
2019-04-10T10:33:15.738Z,98906.75
2019-04-10T10:35:43.509Z,98915.31
2019-04-10T10:38:11.287Z,98911.67
2019-04-10T10:40:39.397Z,98909.44
2019-04-10T10:43:07.879Z,98908.38
2019-04-10T10:45:36.653Z,98906.45
2019-04-10T10:48:08.215Z,98907.88
2019-04-10T10:50:34.355Z,98900.48
2019-04-10T10:53:02.083Z,98899.22
2019-04-10T10:55:29.905Z,98897.39
2019-04-10T10:57:57.676Z,98901.22
2019-04-10T11:00:25.536Z,98897.70
2019-04-10T11:02:53.997Z,98896.50
2019-04-10T11:05:23.102Z,98904.03
2019-04-10T11:07:51.517Z,98902.20
2019-04-10T11:10:23.677Z,98896.08
2019-04-10T11:12:50.755Z,98897.98
2019-04-10T11:15:18.818Z,98906.45
2019-04-10T11:17:46.634Z,98894.59
2019-04-10T11:20:19.959Z,98895.73
2019-04-10T11:22:47.832Z,98885.02
2019-04-10T11:25:15.749Z,98895.97
2019-04-10T11:27:43.538Z,98891.50
2019-04-10T11:30:12.529Z,98894.61
2019-04-10T11:32:42.168Z,98887.20
2019-04-10T11:35:11.269Z,98886.65
2019-04-10T11:40:09.561Z,98883.44
2019-04-10T11:42:37.896Z,98881.89
2019-04-10T11:45:10.243Z,98885.74
2019-04-10T11:47:38.864Z,98886.97
2019-04-10T11:50:13.091Z,98891.59
2019-04-10T11:52:44.530Z,98883.13
2019-04-10T11:55:13.908Z,98890.77
2019-04-10T11:57:42.122Z,98890.55
2019-04-10T12:00:23.905Z,98888.92
2019-04-10T12:02:53.524Z,98894.23
2019-04-10T12:05:25.237Z,98889.91
2019-04-10T12:08:18.148Z,98897.69
2019-04-10T12:12:55.733Z,98892.89
2019-04-10T12:15:23.937Z,98899.12
2019-04-10T12:17:52.051Z,98894.20
2019-04-10T12:20:20.864Z,98895.91
2019-04-10T12:22:49.015Z,98901.14
2019-04-10T12:25:16.824Z,98900.05
2019-04-10T12:27:45.305Z,98896.80
2019-04-10T12:30:15.180Z,98896.87
2019-04-10T12:32:43.259Z,98896.72
2019-04-10T12:35:11.157Z,98900.34
2019-04-10T12:37:39.223Z,98903.56
2019-04-10T12:40:09.847Z,98898.38
2019-04-10T12:42:38.719Z,98899.33
2019-04-10T12:45:08.257Z,98899.36
2019-04-10T12:47:36.197Z,98895.91
2019-04-10T12:50:05.803Z,98899.59
2019-04-10T12:52:34.566Z,98896.53
2019-04-10T12:55:02.379Z,98898.20
2019-04-10T12:57:30.729Z,98904.34
2019-04-10T13:00:01.197Z,98904.94
2019-04-10T13:02:28.481Z,98902.13
2019-04-10T13:04:56.621Z,98903.22
2019-04-10T13:07:24.810Z,98909.23
2019-04-10T13:09:52.659Z,98906.31
2019-04-10T13:12:20.876Z,98910.08
2019-04-10T13:14:49.042Z,98905.19
2019-04-10T13:17:19.998Z,98906.41
2019-04-10T13:19:47.657Z,98901.09
2019-04-10T13:22:15.896Z,98901.56
2019-04-10T13:24:43.859Z,98905.14
2019-04-10T13:27:12.579Z,98906.73
2019-04-10T13:29:42.604Z,98907.48
2019-04-10T13:32:34.649Z,98902.05
2019-04-10T13:35:03.940Z,98903.22
2019-04-10T13:37:41.422Z,98906.91
2019-04-10T13:40:15.229Z,98911.95
2019-04-10T13:42:43.240Z,98909.02
2019-04-10T13:45:13.147Z,98907.72
2019-04-10T13:47:41.224Z,98905.38
2019-04-10T13:50:12.753Z,98905.91
2019-04-10T13:52:51.065Z,98900.58
2019-04-10T13:56:04.397Z,98898.28
2019-04-10T13:58:46.731Z,98897.00
2019-04-10T14:01:35.710Z,98897.59
2019-04-10T14:04:04.933Z,98898.45
2019-04-10T14:06:33.920Z,98900.62
2019-04-10T14:09:17.523Z,98910.55
2019-04-10T14:11:31.910Z,98910.44
2019-04-10T14:14:00.228Z,98910.63
2019-04-10T14:16:28.711Z,98910.58
2019-04-10T14:18:57.118Z,98916.40
2019-04-10T14:21:25.179Z,98910.80
2019-04-10T14:23:53.619Z,98910.70
2019-04-10T14:26:42.104Z,98908.88
2019-04-10T14:29:05.868Z,98910.07
2019-04-10T14:31:37.737Z,98913.17
2019-04-10T14:34:06.607Z,98914.28
2019-04-10T14:36:40.260Z,98894.94
2019-04-10T14:39:18.397Z,98910.12
2019-04-10T14:41:44.209Z,98918.86
2019-04-10T14:44:12.422Z,98925.34
2019-04-10T14:46:40.431Z,98933.81
2019-04-10T14:49:09.004Z,98928.87
2019-04-10T14:51:36.932Z,98936.78
2019-04-10T14:54:05.787Z,98929.34
2019-04-10T14:56:34.504Z,98944.52
2019-04-10T14:59:02.326Z,98935.82
2019-04-10T15:01:30.331Z,98942.30
2019-04-10T15:03:58.130Z,98942.63
2019-04-10T15:06:25.934Z,98949.94
2019-04-10T15:08:57.737Z,98942.07
2019-04-10T15:11:26.688Z,98941.98
2019-04-10T15:13:55.075Z,98939.75
2019-04-10T15:16:23.163Z,98941.16
2019-04-10T15:18:52.002Z,98938.78
2019-04-10T15:21:20.823Z,98941.05
2019-04-10T15:23:48.923Z,98941.16
2019-04-10T15:26:16.747Z,98941.84
2019-04-10T15:28:44.575Z,98942.91
2019-04-10T15:31:12.423Z,98945.01
2019-04-10T15:33:40.386Z,98944.13
2019-04-10T15:36:09.369Z,98945.13
2019-04-10T15:38:37.962Z,98945.53
2019-04-10T15:41:10.907Z,98949.54
2019-04-10T15:43:39.275Z,98953.00
2019-04-10T15:46:07.116Z,98950.48
2019-04-10T15:48:35.634Z,98952.02
2019-04-10T15:51:03.934Z,98957.50
2019-04-10T15:53:32.255Z,98951.05
2019-04-10T15:56:01.237Z,98946.91
2019-04-10T15:58:29.267Z,98948.50
2019-04-10T16:00:57.781Z,98953.35
2019-04-10T16:03:26.189Z,98962.97
2019-04-10T16:05:55.984Z,98966.12
2019-04-10T16:08:24.326Z,98977.75
2019-04-10T16:11:14.885Z,98987.89
2019-04-10T16:13:44.969Z,98984.89
2019-04-10T16:16:48.664Z,98993.36
2019-04-10T16:19:49.180Z,98990.58
2019-04-10T16:22:38.488Z,98994.47
2019-04-10T16:25:16.037Z,99001.34
2019-04-10T16:27:43.871Z,99006.93
2019-04-10T16:30:28.039Z,99012.05
2019-04-10T16:32:55.885Z,99014.22
2019-04-10T16:35:24.197Z,99020.23
2019-04-10T16:37:52.071Z,99020.11
2019-04-10T16:40:20.694Z,99025.43
2019-04-10T16:42:49.188Z,99032.48
2019-04-10T16:45:17.658Z,99032.92
2019-04-10T16:47:46.275Z,99033.92
2019-04-10T16:50:14.638Z,99039.84
2019-04-10T16:52:43.158Z,99040.56
2019-04-10T16:55:11.504Z,99040.95
2019-04-10T16:57:39.890Z,99048.91
2019-04-10T17:00:08.401Z,99051.66
2019-04-10T17:02:36.269Z,99052.97
2019-04-10T17:05:06.019Z,99052.60
2019-04-10T17:07:34.862Z,99059.05
2019-04-10T17:10:14.012Z,99068.77
2019-04-10T17:12:38.214Z,99068.95
2019-04-10T17:15:08.125Z,99078.06
2019-04-10T17:17:36.694Z,99078.41
2019-04-10T17:20:06.900Z,99083.44
2019-04-10T17:22:42.301Z,99092.38
2019-04-10T17:25:06.315Z,99094.70
2019-04-10T17:27:35.286Z,99095.70
2019-04-10T17:30:09.534Z,99104.06
2019-04-10T17:32:40.464Z,99105.71
2019-04-10T17:35:09.640Z,99113.87
2019-04-10T17:37:38.073Z,99112.77
2019-04-10T17:40:08.535Z,99110.02
2019-04-10T17:42:37.725Z,99116.73
2019-04-10T17:45:07.356Z,99119.47
2019-04-10T17:47:35.184Z,99124.19
2019-04-10T17:50:05.703Z,99134.29
2019-04-10T17:52:35.950Z,99136.98
2019-04-10T17:55:04.116Z,99140.83
2019-04-10T17:57:38.364Z,99145.16
2019-04-10T18:00:03.011Z,99150.33
2019-04-10T18:02:31.204Z,99152.65
2019-04-10T18:04:59.110Z,99157.77
2019-04-10T18:07:27.873Z,99155.97
2019-04-10T18:10:02.383Z,99162.53
2019-04-10T18:12:30.446Z,99168.25
2019-04-10T18:14:59.683Z,99172.83
2019-04-10T18:17:29.046Z,99173.92
2019-04-10T18:19:56.978Z,99177.81
2019-04-10T18:22:24.784Z,99182.52
2019-04-10T18:24:55.793Z,99190.86
2019-04-10T18:27:24.664Z,99197.71
2019-04-10T18:29:52.497Z,99202.77
2019-04-10T18:32:21.340Z,99209.29
2019-04-10T18:34:50.034Z,99209.20
2019-04-10T18:37:22.051Z,99217.52
2019-04-10T18:39:48.626Z,99230.59
2019-04-10T18:42:17.310Z,99230.50
2019-04-10T18:44:45.240Z,99239.45
2019-04-10T18:47:13.198Z,99241.33
2019-04-10T18:49:41.007Z,99257.55
2019-04-10T18:52:08.833Z,99255.91
2019-04-10T18:54:36.671Z,99258.47
2019-04-10T18:57:05.396Z,99260.98
2019-04-10T18:59:45.307Z,99268.28
2019-04-10T19:02:30.366Z,99271.45
2019-04-10T19:05:12.095Z,99270.97
2019-04-10T19:07:40.633Z,99272.52
2019-04-10T19:10:08.922Z,99283.58
2019-04-10T19:12:36.985Z,99284.11
2019-04-10T19:15:06.451Z,99282.66
2019-04-10T19:17:35.116Z,99289.93
2019-04-10T19:20:04.153Z,99288.00
2019-04-10T19:22:32.475Z,99293.75
2019-04-10T19:25:00.700Z,99300.72
2019-04-10T19:27:28.657Z,99302.05
2019-04-10T19:29:57.026Z,99306.69
2019-04-10T19:32:33.460Z,99309.83
2019-04-10T19:35:02.691Z,99314.95
2019-04-10T19:37:31.078Z,99315.45
2019-04-10T19:39:59.158Z,99313.70
2019-04-10T19:42:27.145Z,99320.28
2019-04-10T19:44:55.283Z,99316.19
2019-04-10T19:47:23.144Z,99321.63
2019-04-10T19:49:50.985Z,99317.88
2019-04-10T19:52:18.847Z,99327.73
2019-04-10T19:54:47.231Z,99330.72
2019-04-10T19:57:15.406Z,99331.86
2019-04-10T19:59:44.041Z,99336.64
2019-04-10T20:02:12.850Z,99334.67
2019-04-10T20:04:40.979Z,99336.19
2019-04-10T20:07:09.097Z,99338.16
2019-04-10T20:09:37.338Z,99343.89
2019-04-10T20:12:05.155Z,99340.46
2019-04-10T20:14:34.655Z,99344.88
2019-04-10T20:17:03.860Z,99345.86
2019-04-10T20:19:32.778Z,99349.50
2019-04-10T20:22:01.344Z,99352.28
2019-04-10T20:24:29.270Z,99356.88
2019-04-10T20:26:57.318Z,99361.31
2019-04-10T20:29:25.179Z,99359.66
2019-04-10T20:31:55.287Z,99365.09
2019-04-10T20:34:23.343Z,99362.79
2019-04-10T20:36:51.208Z,99371.65
2019-04-10T20:39:19.113Z,99374.56
2019-04-10T20:41:53.271Z,99377.67
2019-04-10T20:44:17.297Z,99380.94
2019-04-10T20:46:45.071Z,99379.42
2019-04-10T20:49:12.816Z,99385.97
2019-04-10T20:51:41.910Z,99389.36
2019-04-10T20:54:10.651Z,99394.26
2019-04-10T20:56:38.981Z,99398.19
2019-04-10T20:59:07.721Z,99403.22
2019-04-10T21:01:37.174Z,99402.20
2019-04-10T21:04:05.337Z,99395.97
2019-04-10T21:06:33.839Z,99399.89
2019-04-10T21:09:05.318Z,99401.78
2019-04-10T21:11:38.392Z,99404.56
2019-04-10T21:14:07.215Z,99406.39
2019-04-10T21:16:35.755Z,99400.48
2019-04-10T21:19:04.535Z,99398.66
2019-04-10T21:21:32.898Z,99402.25
2019-04-10T21:24:00.940Z,99400.74
2019-04-10T21:26:28.955Z,99407.22
2019-04-10T21:28:56.774Z,99409.78
2019-04-10T21:31:42.853Z,99410.72
2019-04-10T21:34:21.947Z,99413.13
2019-04-10T21:36:49.819Z,99411.42
2019-04-10T21:39:17.664Z,99410.53
2019-04-10T21:41:46.688Z,99401.98
2019-04-10T21:44:14.634Z,99407.98
2019-04-10T21:46:42.492Z,99402.38
2019-04-10T21:49:11.370Z,99406.75
2019-04-10T21:51:40.683Z,99402.66
2019-04-10T21:54:09.865Z,99397.98
2019-04-10T21:56:38.695Z,99411.04
2019-04-10T21:59:06.472Z,99416.25
2019-04-10T22:01:34.697Z,99413.97
2019-04-10T22:04:03.305Z,99413.09
2019-04-10T22:07:05.727Z,99419.43
2019-04-10T22:09:43.276Z,99422.95
2019-04-10T22:12:25.948Z,99424.38
2019-04-10T22:14:48.070Z,99426.44
2019-04-10T22:17:17.062Z,99434.00
2019-04-10T22:19:45.215Z,99433.94
2019-04-10T22:22:13.094Z,99434.36
2019-04-10T22:24:40.770Z,99438.53
2019-04-10T22:27:09.289Z,99437.00
2019-04-10T22:29:36.958Z,99444.29
2019-04-10T22:32:04.749Z,99438.47
2019-04-10T22:34:32.444Z,99443.31
2019-04-10T22:37:00.262Z,99445.22
2019-04-10T22:39:27.990Z,99449.23
2019-04-10T22:41:56.885Z,99449.61
2019-04-10T22:44:35.882Z,99452.31
2019-04-10T22:46:54.502Z,99452.00
2019-04-10T22:49:22.282Z,99449.95
2019-04-10T22:51:50.017Z,99449.70
2019-04-10T22:54:17.951Z,99453.20
2019-04-10T22:56:45.708Z,99460.62
2019-04-10T22:59:13.626Z,99459.87
2019-04-10T23:01:41.703Z,99461.12
2019-04-10T23:04:10.086Z,99463.81
2019-04-10T23:06:38.102Z,99471.12
2019-04-10T23:09:08.482Z,99470.06
2019-04-10T23:11:41.844Z,99469.80
2019-04-10T23:14:06.799Z,99469.52
2019-04-10T23:16:35.737Z,99476.48
2019-04-10T23:19:22.968Z,99476.44
2019-04-10T23:22:15.382Z,99477.11
2019-04-10T23:24:43.491Z,99389.70
2019-04-10T23:27:11.567Z,99473.51
2019-04-10T23:29:40.208Z,99475.83
2019-04-10T23:32:08.134Z,99474.98
2019-04-10T23:34:36.774Z,99476.28
2019-04-10T23:37:04.821Z,99477.19
2019-04-10T23:39:32.597Z,99483.81
2019-04-10T23:42:01.143Z,99483.41
2019-04-10T23:44:29.199Z,99496.03
2019-04-10T23:46:57.843Z,99496.75
2019-04-10T23:49:25.673Z,99490.27
2019-04-10T23:51:53.689Z,99493.92
2019-04-10T23:54:21.576Z,99493.98
2019-04-10T23:57:10.010Z,99492.97
2019-04-10T23:59:39.107Z,99496.45
